Terminal Aerodrome Forecast
Issued by NWS

Home | Current Version | Previous Version | Text Only | Print | Product List | Glossary On
Versions: 1 2 3 4 5 6 7 8 9 10 11 12 13 14 15 16 17 18 19 20
000
FTUS43 KTOP 221300 AAA
TAFMHK
TAF AMD
KMHK 221354Z 2214/2312 18010KT 6SM -RA BR OVC007
      TEMPO 2214/2218 3SM -RA BR SCT005 OVC006
     FM221900 30012KT P6SM SCT020 OVC035=

USA.gov is the U.S. government's official web portal to all federal, state and local government web resources and services.